THY2478 LGIR-LTDB
Flight info
| Callsign | THY2478 |
|---|---|
| Flight time | 1h 19m |
| Altitude | 37000 |
| Route | DELAV UN136 DAL UW79 AYT UR55 MUT/N0440F380 UW74 MANAZ |
| Aircraft | A320/M-SDE3FGHIRWY/LB1 |
Departure
| Time | 2026-05-07 12:52 |
|---|---|
| Airport | Heraklion International Nikos Kazantzakis Airport (LGIR) |
Arrival
| Time | 2026-05-07 14:12 |
|---|---|
| Airport | Çukurova International Airport (LTDB) |
| Time | Latitude | Longitude | Altitude | Speed | Heading |
|---|---|---|---|---|---|
| 2026-05-07 12:21 | 35.33816 | 25.17848 | 85 ft | 0 kts | 184° |
| 2026-05-07 12:40 | 35.33825 | 25.17849 | 85 ft | 4 kts | 185° |
| 2026-05-07 12:41 | 35.33851 | 25.17854 | 85 ft | 4 kts | 196° |
| 2026-05-07 12:41 | 35.33875 | 25.17866 | 86 ft | 4 kts | 222° |
| 2026-05-07 12:41 | 35.33886 | 25.17887 | 90 ft | 1 kts | 275° |
| 2026-05-07 12:41 | 35.33886 | 25.17888 | 89 ft | 1 kts | 275° |
| 2026-05-07 12:43 | 35.33885 | 25.17888 | 87 ft | 0 kts | 275° |
| 2026-05-07 12:45 | 35.33886 | 25.17887 | 87 ft | 1 kts | 275° |
| 2026-05-07 12:46 | 35.33887 | 25.17866 | 90 ft | 6 kts | 274° |
| 2026-05-07 12:46 | 35.33892 | 25.17795 | 87 ft | 10 kts | 275° |
| 2026-05-07 12:46 | 35.33898 | 25.17700 | 90 ft | 13 kts | 274° |
| 2026-05-07 12:46 | 35.33907 | 25.17576 | 85 ft | 16 kts | 274° |
| 2026-05-07 12:47 | 35.33918 | 25.17425 | 84 ft | 19 kts | 274° |
| 2026-05-07 12:47 | 35.33930 | 25.17248 | 86 ft | 22 kts | 275° |
| 2026-05-07 12:47 | 35.33936 | 25.17147 | 83 ft | 0 kts | 272° |
| 2026-05-07 12:47 | 35.33937 | 25.17139 | 83 ft | 3 kts | 272° |
| 2026-05-07 12:48 | 35.33941 | 25.17069 | 87 ft | 11 kts | 275° |
| 2026-05-07 12:48 | 35.33949 | 25.16963 | 84 ft | 14 kts | 275° |
| 2026-05-07 12:48 | 35.33959 | 25.16834 | 86 ft | 17 kts | 275° |
| 2026-05-07 12:48 | 35.33974 | 25.16756 | 86 ft | 0 kts | 298° |
| 2026-05-07 12:49 | 35.33982 | 25.16738 | 86 ft | 5 kts | 300° |
| 2026-05-07 12:49 | 35.34011 | 25.16686 | 69 ft | 10 kts | 306° |
| 2026-05-07 12:50 | 35.34066 | 25.16661 | 72 ft | 8 kts | 45° |
| 2026-05-07 12:50 | 35.34066 | 25.16715 | 69 ft | 0 kts | 97° |
| 2026-05-07 12:51 | 35.34066 | 25.16717 | 69 ft | 1 kts | 97° |
| 2026-05-07 12:51 | 35.34063 | 25.16745 | 73 ft | 15 kts | 96° |
| 2026-05-07 12:51 | 35.34033 | 25.17199 | 83 ft | 88 kts | 96° |
| 2026-05-07 12:52 | 35.33964 | 25.18182 | 94 ft | 141 kts | 95° |
| 2026-05-07 12:52 | 35.33872 | 25.19502 | 372 ft | 160 kts | 95° |
| 2026-05-07 12:52 | 35.33764 | 25.20829 | 1114 ft | 153 kts | 96° |
| 2026-05-07 12:52 | 35.33670 | 25.22127 | 1696 ft | 157 kts | 92° |
| 2026-05-07 12:53 | 35.33616 | 25.23499 | 2203 ft | 165 kts | 92° |
| 2026-05-07 12:53 | 35.33600 | 25.24909 | 2741 ft | 169 kts | 92° |
| 2026-05-07 12:53 | 35.33520 | 25.26345 | 3356 ft | 169 kts | 94° |
| 2026-05-07 12:53 | 35.33464 | 25.27806 | 3863 ft | 175 kts | 92° |
| 2026-05-07 12:54 | 35.33410 | 25.29322 | 4348 ft | 182 kts | 94° |
| 2026-05-07 12:54 | 35.33264 | 25.30893 | 4869 ft | 189 kts | 99° |
| 2026-05-07 12:54 | 35.33026 | 25.32486 | 5434 ft | 192 kts | 102° |
| 2026-05-07 12:54 | 35.32742 | 25.34088 | 6002 ft | 194 kts | 103° |
| 2026-05-07 12:55 | 35.32427 | 25.35709 | 6600 ft | 196 kts | 104° |
| 2026-05-07 12:55 | 35.32082 | 25.37330 | 7226 ft | 195 kts | 104° |
| 2026-05-07 12:55 | 35.31772 | 25.38976 | 7658 ft | 207 kts | 98° |
| 2026-05-07 12:55 | 35.31837 | 25.40818 | 7875 ft | 229 kts | 71° |
| 2026-05-07 12:56 | 35.32743 | 25.42430 | 8171 ft | 244 kts | 38° |
| 2026-05-07 12:56 | 35.34226 | 25.43614 | 8592 ft | 260 kts | 31° |
| 2026-05-07 12:56 | 35.35806 | 25.44747 | 9296 ft | 264 kts | 30° |
| 2026-05-07 12:56 | 35.37399 | 25.45890 | 10006 ft | 267 kts | 34° |
| 2026-05-07 12:57 | 35.38732 | 25.47538 | 10468 ft | 285 kts | 57° |
| 2026-05-07 12:57 | 35.39692 | 25.49779 | 10752 ft | 309 kts | 63° |
| 2026-05-07 12:57 | 35.40675 | 25.52229 | 11005 ft | 331 kts | 63° |
| 2026-05-07 12:57 | 35.41690 | 25.54776 | 11549 ft | 341 kts | 63° |
| 2026-05-07 12:58 | 35.42741 | 25.57407 | 12276 ft | 345 kts | 63° |
| 2026-05-07 12:58 | 35.43808 | 25.60078 | 12983 ft | 350 kts | 63° |
| 2026-05-07 12:58 | 35.44882 | 25.62768 | 13661 ft | 353 kts | 63° |
| 2026-05-07 12:58 | 35.45974 | 25.65490 | 14316 ft | 358 kts | 62° |
| 2026-05-07 12:59 | 35.47080 | 25.68243 | 14988 ft | 362 kts | 62° |
| 2026-05-07 12:59 | 35.48200 | 25.71025 | 15622 ft | 365 kts | 62° |
| 2026-05-07 12:59 | 35.49332 | 25.73840 | 16234 ft | 369 kts | 62° |
| 2026-05-07 12:59 | 35.50460 | 25.76647 | 16819 ft | 371 kts | 62° |
| 2026-05-07 13:00 | 35.51609 | 25.79514 | 17385 ft | 376 kts | 62° |
| 2026-05-07 13:00 | 35.52772 | 25.82409 | 17966 ft | 379 kts | 62° |
| 2026-05-07 13:00 | 35.53944 | 25.85326 | 18530 ft | 383 kts | 62° |
| 2026-05-07 13:00 | 35.55126 | 25.88276 | 19115 ft | 387 kts | 62° |
| 2026-05-07 13:01 | 35.56305 | 25.91224 | 19689 ft | 390 kts | 62° |
| 2026-05-07 13:01 | 35.57501 | 25.94227 | 20249 ft | 392 kts | 62° |
| 2026-05-07 13:01 | 35.58701 | 25.97254 | 20770 ft | 395 kts | 62° |
| 2026-05-07 13:01 | 35.59912 | 26.00302 | 21274 ft | 399 kts | 62° |
| 2026-05-07 13:02 | 35.61137 | 26.03383 | 21782 ft | 403 kts | 62° |
| 2026-05-07 13:02 | 35.62373 | 26.06486 | 22287 ft | 405 kts | 62° |
| 2026-05-07 13:02 | 35.63201 | 26.08558 | 22608 ft | 407 kts | 62° |
| 2026-05-07 13:02 | 35.64450 | 26.11693 | 23070 ft | 409 kts | 62° |
| 2026-05-07 13:03 | 35.65709 | 26.14860 | 23507 ft | 413 kts | 62° |
| 2026-05-07 13:03 | 35.66973 | 26.18048 | 23951 ft | 416 kts | 62° |
| 2026-05-07 13:03 | 35.68248 | 26.21261 | 24403 ft | 419 kts | 62° |
| 2026-05-07 13:03 | 35.69530 | 26.24501 | 24838 ft | 422 kts | 62° |
| 2026-05-07 13:04 | 35.70820 | 26.27765 | 25262 ft | 425 kts | 62° |
| 2026-05-07 13:04 | 35.72113 | 26.31045 | 25668 ft | 426 kts | 63° |
| 2026-05-07 13:04 | 35.73410 | 26.34340 | 26041 ft | 430 kts | 63° |
| 2026-05-07 13:04 | 35.74714 | 26.37659 | 26437 ft | 433 kts | 62° |
| 2026-05-07 13:05 | 35.76014 | 26.40967 | 26827 ft | 435 kts | 62° |
| 2026-05-07 13:05 | 35.77357 | 26.44373 | 27212 ft | 438 kts | 62° |
| 2026-05-07 13:05 | 35.78677 | 26.47725 | 27498 ft | 437 kts | 62° |
| 2026-05-07 13:05 | 35.79980 | 26.51023 | 27692 ft | 430 kts | 62° |
| 2026-05-07 13:06 | 35.81290 | 26.54351 | 27834 ft | 434 kts | 62° |
| 2026-05-07 13:06 | 35.82586 | 26.57753 | 28000 ft | 439 kts | 63° |
| 2026-05-07 13:06 | 35.83922 | 26.61155 | 28301 ft | 440 kts | 63° |
| 2026-05-07 13:06 | 35.85319 | 26.64554 | 28556 ft | 443 kts | 60° |
| 2026-05-07 13:07 | 35.86679 | 26.67943 | 28862 ft | 450 kts | 62° |
| 2026-05-07 13:07 | 35.88046 | 26.71471 | 29292 ft | 458 kts | 63° |
| 2026-05-07 13:07 | 35.89428 | 26.75046 | 29863 ft | 459 kts | 62° |
| 2026-05-07 13:07 | 35.90775 | 26.78558 | 30289 ft | 460 kts | 63° |
| 2026-05-07 13:08 | 35.92172 | 26.82182 | 30744 ft | 471 kts | 62° |
| 2026-05-07 13:08 | 35.93566 | 26.85809 | 31281 ft | 465 kts | 62° |
| 2026-05-07 13:08 | 35.94946 | 26.89426 | 31817 ft | 464 kts | 60° |
| 2026-05-07 13:08 | 35.96314 | 26.93013 | 32310 ft | 457 kts | 62° |
| 2026-05-07 13:09 | 35.97674 | 26.96550 | 32523 ft | 452 kts | 63° |
| 2026-05-07 13:09 | 35.99057 | 27.00099 | 32691 ft | 464 kts | 61° |
| 2026-05-07 13:09 | 36.00449 | 27.03672 | 33061 ft | 460 kts | 62° |
| 2026-05-07 13:09 | 36.01834 | 27.07197 | 33402 ft | 459 kts | 61° |
| 2026-05-07 13:10 | 36.03221 | 27.10733 | 33741 ft | 460 kts | 61° |
| 2026-05-07 13:10 | 36.04594 | 27.14285 | 34150 ft | 458 kts | 60° |
| 2026-05-07 13:10 | 36.05953 | 27.17818 | 34408 ft | 459 kts | 62° |
| 2026-05-07 13:10 | 36.07306 | 27.21403 | 34753 ft | 462 kts | 61° |
| 2026-05-07 13:11 | 36.08658 | 27.24993 | 35166 ft | 458 kts | 61° |
| 2026-05-07 13:11 | 36.10002 | 27.28580 | 35584 ft | 459 kts | 62° |
| 2026-05-07 13:11 | 36.11338 | 27.32124 | 35941 ft | 450 kts | 62° |
| 2026-05-07 13:11 | 36.12665 | 27.35609 | 36073 ft | 458 kts | 60° |
| 2026-05-07 13:12 | 36.15397 | 27.42716 | 36119 ft | 456 kts | 60° |
| 2026-05-07 13:12 | 36.18132 | 27.49828 | 36158 ft | 454 kts | 60° |
| 2026-05-07 13:13 | 36.20841 | 27.56893 | 36136 ft | 444 kts | 61° |
| 2026-05-07 13:13 | 36.23475 | 27.63957 | 36108 ft | 458 kts | 62° |
| 2026-05-07 13:14 | 36.26142 | 27.71063 | 36135 ft | 452 kts | 60° |
| 2026-05-07 13:14 | 36.28901 | 27.78167 | 36154 ft | 456 kts | 60° |
| 2026-05-07 13:15 | 36.31567 | 27.85261 | 36160 ft | 449 kts | 63° |
| 2026-05-07 13:15 | 36.34215 | 27.92394 | 36118 ft | 456 kts | 62° |
| 2026-05-07 13:16 | 36.35530 | 27.95984 | 36145 ft | 467 kts | 62° |
| 2026-05-07 13:16 | 36.36833 | 27.99625 | 36131 ft | 459 kts | 64° |
| 2026-05-07 13:16 | 36.39510 | 28.06737 | 36133 ft | 451 kts | 61° |
| 2026-05-07 13:17 | 36.42249 | 28.13796 | 36160 ft | 455 kts | 62° |
| 2026-05-07 13:17 | 36.44942 | 28.20951 | 36137 ft | 450 kts | 61° |
| 2026-05-07 13:18 | 36.47569 | 28.28091 | 36112 ft | 450 kts | 62° |
| 2026-05-07 13:18 | 36.50177 | 28.35202 | 36145 ft | 453 kts | 62° |
| 2026-05-07 13:19 | 36.52785 | 28.42319 | 36130 ft | 454 kts | 62° |
| 2026-05-07 13:19 | 36.55506 | 28.49418 | 36141 ft | 453 kts | 56° |
| 2026-05-07 13:20 | 36.58689 | 28.56172 | 36144 ft | 451 kts | 56° |
| 2026-05-07 13:20 | 36.61853 | 28.62923 | 36135 ft | 451 kts | 56° |
| 2026-05-07 13:21 | 36.64981 | 28.69631 | 36144 ft | 450 kts | 57° |
| 2026-05-07 13:21 | 36.68031 | 28.76458 | 36135 ft | 453 kts | 63° |
| 2026-05-07 13:22 | 36.69685 | 28.84060 | 36136 ft | 458 kts | 79° |
| 2026-05-07 13:22 | 36.70632 | 28.91877 | 36136 ft | 458 kts | 78° |
| 2026-05-07 13:23 | 36.71610 | 28.99733 | 36131 ft | 459 kts | 78° |
| 2026-05-07 13:23 | 36.72576 | 29.07585 | 36137 ft | 458 kts | 79° |
| 2026-05-07 13:24 | 36.73512 | 29.15391 | 36134 ft | 457 kts | 79° |
| 2026-05-07 13:24 | 36.74443 | 29.23229 | 36146 ft | 457 kts | 79° |
| 2026-05-07 13:25 | 36.75380 | 29.31079 | 36146 ft | 457 kts | 79° |
| 2026-05-07 13:25 | 36.76317 | 29.38916 | 36147 ft | 457 kts | 79° |
| 2026-05-07 13:26 | 36.77248 | 29.46733 | 36146 ft | 456 kts | 79° |
| 2026-05-07 13:26 | 36.78172 | 29.54565 | 36160 ft | 456 kts | 79° |
| 2026-05-07 13:27 | 36.79081 | 29.62364 | 36158 ft | 457 kts | 79° |
| 2026-05-07 13:27 | 36.79986 | 29.70203 | 36163 ft | 456 kts | 79° |
| 2026-05-07 13:28 | 36.80888 | 29.78060 | 36145 ft | 456 kts | 79° |
| 2026-05-07 13:28 | 36.81745 | 29.85919 | 36149 ft | 456 kts | 80° |
| 2026-05-07 13:29 | 36.82572 | 29.93740 | 36143 ft | 457 kts | 80° |
| 2026-05-07 13:29 | 36.83405 | 30.01601 | 36141 ft | 456 kts | 80° |
| 2026-05-07 13:30 | 36.84295 | 30.09465 | 36132 ft | 456 kts | 79° |
| 2026-05-07 13:30 | 36.85211 | 30.17264 | 36140 ft | 455 kts | 79° |
| 2026-05-07 13:31 | 36.86117 | 30.25092 | 36129 ft | 455 kts | 79° |
| 2026-05-07 13:31 | 36.86995 | 30.32929 | 36129 ft | 456 kts | 80° |
| 2026-05-07 13:32 | 36.87863 | 30.40795 | 36117 ft | 456 kts | 80° |
| 2026-05-07 13:32 | 36.88720 | 30.48660 | 36126 ft | 457 kts | 80° |
| 2026-05-07 13:33 | 36.89585 | 30.56541 | 36118 ft | 456 kts | 80° |
| 2026-05-07 13:33 | 36.90443 | 30.64346 | 36110 ft | 456 kts | 80° |
| 2026-05-07 13:34 | 36.91731 | 30.76160 | 36109 ft | 456 kts | 80° |
| 2026-05-07 13:35 | 36.91903 | 30.84061 | 36111 ft | 460 kts | 91° |
| 2026-05-07 13:35 | 36.91575 | 30.92064 | 36110 ft | 460 kts | 91° |
| 2026-05-07 13:36 | 36.91253 | 31.00020 | 36111 ft | 460 kts | 91° |
| 2026-05-07 13:36 | 36.90923 | 31.08017 | 36121 ft | 461 kts | 91° |
| 2026-05-07 13:37 | 36.90587 | 31.16027 | 36119 ft | 461 kts | 91° |
| 2026-05-07 13:37 | 36.90238 | 31.24023 | 36118 ft | 460 kts | 91° |
| 2026-05-07 13:38 | 36.89894 | 31.31984 | 36115 ft | 462 kts | 91° |
| 2026-05-07 13:38 | 36.89546 | 31.39996 | 36125 ft | 462 kts | 91° |
| 2026-05-07 13:39 | 36.89671 | 31.48006 | 36126 ft | 460 kts | 85° |
| 2026-05-07 13:39 | 36.89943 | 31.55994 | 36141 ft | 460 kts | 85° |
| 2026-05-07 13:40 | 36.90199 | 31.63991 | 36140 ft | 460 kts | 85° |
| 2026-05-07 13:40 | 36.90452 | 31.71942 | 36145 ft | 460 kts | 85° |
| 2026-05-07 13:41 | 36.90572 | 31.79960 | 36147 ft | 461 kts | 88° |
| 2026-05-07 13:41 | 36.90374 | 31.87944 | 36155 ft | 462 kts | 90° |
| 2026-05-07 13:42 | 36.90096 | 31.95968 | 36160 ft | 462 kts | 90° |
| 2026-05-07 13:42 | 36.89884 | 32.03999 | 36151 ft | 462 kts | 90° |
| 2026-05-07 13:43 | 36.89717 | 32.12071 | 36159 ft | 464 kts | 89° |
| 2026-05-07 13:43 | 36.89526 | 32.20066 | 36163 ft | 463 kts | 90° |
| 2026-05-07 13:44 | 36.89314 | 32.28126 | 36165 ft | 463 kts | 90° |
| 2026-05-07 13:44 | 36.89091 | 32.36204 | 36156 ft | 464 kts | 90° |
| 2026-05-07 13:45 | 36.88874 | 32.44204 | 36166 ft | 464 kts | 90° |
| 2026-05-07 13:45 | 36.88656 | 32.52261 | 36165 ft | 464 kts | 90° |
| 2026-05-07 13:46 | 36.88436 | 32.60331 | 36164 ft | 464 kts | 90° |
| 2026-05-07 13:46 | 36.88321 | 32.64388 | 35922 ft | 466 kts | 90° |
| 2026-05-07 13:46 | 36.88206 | 32.68428 | 35547 ft | 466 kts | 90° |
| 2026-05-07 13:46 | 36.88090 | 32.72437 | 35177 ft | 466 kts | 90° |
| 2026-05-07 13:47 | 36.87972 | 32.76485 | 34805 ft | 465 kts | 90° |
| 2026-05-07 13:47 | 36.87852 | 32.80519 | 34428 ft | 463 kts | 90° |
| 2026-05-07 13:47 | 36.87730 | 32.84534 | 34054 ft | 460 kts | 90° |
| 2026-05-07 13:47 | 36.87608 | 32.88515 | 33679 ft | 458 kts | 90° |
| 2026-05-07 13:48 | 36.87528 | 32.91140 | 33431 ft | 456 kts | 90° |
| 2026-05-07 13:48 | 36.87405 | 32.95081 | 33054 ft | 453 kts | 90° |
| 2026-05-07 13:48 | 36.87281 | 32.99004 | 32679 ft | 451 kts | 90° |
| 2026-05-07 13:48 | 36.87158 | 33.02911 | 32302 ft | 448 kts | 90° |
| 2026-05-07 13:49 | 36.87037 | 33.06792 | 31925 ft | 446 kts | 90° |
| 2026-05-07 13:49 | 36.86916 | 33.10645 | 31549 ft | 443 kts | 90° |
| 2026-05-07 13:49 | 36.86793 | 33.14491 | 31173 ft | 441 kts | 90° |
| 2026-05-07 13:49 | 36.86672 | 33.18265 | 30808 ft | 438 kts | 90° |
| 2026-05-07 13:50 | 36.86547 | 33.22051 | 30427 ft | 436 kts | 90° |
| 2026-05-07 13:50 | 36.86420 | 33.25827 | 30048 ft | 433 kts | 90° |
| 2026-05-07 13:50 | 36.86340 | 33.29588 | 29671 ft | 430 kts | 85° |
| 2026-05-07 13:50 | 36.86513 | 33.33294 | 29296 ft | 425 kts | 84° |
| 2026-05-07 13:51 | 36.86698 | 33.36973 | 28921 ft | 423 kts | 84° |
| 2026-05-07 13:51 | 36.86882 | 33.40635 | 28542 ft | 422 kts | 84° |
| 2026-05-07 13:51 | 36.87061 | 33.44281 | 28170 ft | 418 kts | 84° |
| 2026-05-07 13:51 | 36.87238 | 33.47853 | 27799 ft | 416 kts | 84° |
| 2026-05-07 13:52 | 36.87416 | 33.51446 | 27427 ft | 413 kts | 84° |
| 2026-05-07 13:52 | 36.87590 | 33.55018 | 27052 ft | 410 kts | 84° |
| 2026-05-07 13:52 | 36.87763 | 33.58563 | 26675 ft | 408 kts | 84° |
| 2026-05-07 13:52 | 36.87935 | 33.62107 | 26300 ft | 406 kts | 84° |
| 2026-05-07 13:53 | 36.88106 | 33.65622 | 25938 ft | 404 kts | 84° |
| 2026-05-07 13:53 | 36.88272 | 33.69112 | 25563 ft | 401 kts | 84° |
| 2026-05-07 13:53 | 36.88432 | 33.72574 | 25187 ft | 398 kts | 84° |
| 2026-05-07 13:53 | 36.88592 | 33.76013 | 24812 ft | 395 kts | 84° |
| 2026-05-07 13:54 | 36.88749 | 33.79400 | 24443 ft | 393 kts | 84° |
| 2026-05-07 13:54 | 36.88909 | 33.82806 | 24065 ft | 390 kts | 84° |
| 2026-05-07 13:54 | 36.89068 | 33.86184 | 23690 ft | 388 kts | 84° |
| 2026-05-07 13:54 | 36.89224 | 33.89549 | 23312 ft | 385 kts | 85° |
| 2026-05-07 13:55 | 36.89377 | 33.92862 | 22940 ft | 383 kts | 85° |
| 2026-05-07 13:55 | 36.89529 | 33.96178 | 22551 ft | 380 kts | 85° |
| 2026-05-07 13:55 | 36.89677 | 33.99470 | 22174 ft | 378 kts | 85° |
| 2026-05-07 13:55 | 36.89824 | 34.02737 | 21799 ft | 375 kts | 85° |
| 2026-05-07 13:56 | 36.89967 | 34.05943 | 21420 ft | 373 kts | 85° |
| 2026-05-07 13:56 | 36.90112 | 34.09162 | 21049 ft | 370 kts | 85° |
| 2026-05-07 13:56 | 36.90253 | 34.12367 | 20668 ft | 367 kts | 85° |
| 2026-05-07 13:56 | 36.90387 | 34.15543 | 20295 ft | 366 kts | 85° |
| 2026-05-07 13:57 | 36.90523 | 34.18705 | 19922 ft | 363 kts | 85° |
| 2026-05-07 13:57 | 36.90660 | 34.21846 | 19566 ft | 361 kts | 85° |
| 2026-05-07 13:57 | 36.90791 | 34.24954 | 19111 ft | 354 kts | 85° |
| 2026-05-07 13:57 | 36.90920 | 34.27996 | 18659 ft | 355 kts | 85° |
| 2026-05-07 13:58 | 36.91051 | 34.31070 | 18208 ft | 352 kts | 85° |
| 2026-05-07 13:58 | 36.91180 | 34.34115 | 17763 ft | 349 kts | 85° |
| 2026-05-07 13:58 | 36.91306 | 34.37138 | 17312 ft | 347 kts | 85° |
| 2026-05-07 13:58 | 36.91440 | 34.40144 | 16866 ft | 345 kts | 83° |
| 2026-05-07 13:59 | 36.91868 | 34.43084 | 16411 ft | 342 kts | 74° |
| 2026-05-07 13:59 | 36.92461 | 34.45924 | 15967 ft | 340 kts | 74° |
| 2026-05-07 13:59 | 36.93059 | 34.48792 | 15518 ft | 338 kts | 74° |
| 2026-05-07 13:59 | 36.93653 | 34.51638 | 15073 ft | 337 kts | 74° |
| 2026-05-07 14:00 | 36.94242 | 34.54472 | 14629 ft | 336 kts | 74° |
| 2026-05-07 14:00 | 36.94828 | 34.57296 | 14196 ft | 333 kts | 75° |
| 2026-05-07 14:00 | 36.95405 | 34.60093 | 13750 ft | 332 kts | 75° |
| 2026-05-07 14:00 | 36.95974 | 34.62854 | 13297 ft | 331 kts | 75° |
| 2026-05-07 14:01 | 36.96547 | 34.65641 | 12860 ft | 330 kts | 75° |
| 2026-05-07 14:01 | 36.97115 | 34.68414 | 12429 ft | 328 kts | 75° |
| 2026-05-07 14:01 | 36.97679 | 34.71172 | 11978 ft | 327 kts | 75° |
| 2026-05-07 14:01 | 36.98240 | 34.73916 | 11528 ft | 325 kts | 75° |
| 2026-05-07 14:02 | 36.98801 | 34.76658 | 11043 ft | 326 kts | 75° |
| 2026-05-07 14:02 | 36.99360 | 34.79397 | 10551 ft | 325 kts | 75° |
| 2026-05-07 14:02 | 36.99921 | 34.82141 | 10055 ft | 325 kts | 75° |
| 2026-05-07 14:02 | 37.00476 | 34.84862 | 9556 ft | 327 kts | 75° |
| 2026-05-07 14:03 | 37.01035 | 34.87617 | 9080 ft | 326 kts | 75° |
| 2026-05-07 14:03 | 37.01591 | 34.90360 | 8632 ft | 324 kts | 75° |
| 2026-05-07 14:03 | 37.02148 | 34.93100 | 8177 ft | 323 kts | 75° |
| 2026-05-07 14:03 | 37.02703 | 34.95829 | 7724 ft | 321 kts | 75° |
| 2026-05-07 14:04 | 37.03287 | 34.98516 | 7285 ft | 318 kts | 69° |
| 2026-05-07 14:04 | 37.04335 | 35.00933 | 6854 ft | 315 kts | 52° |
| 2026-05-07 14:04 | 37.05857 | 35.02773 | 6425 ft | 300 kts | 36° |
| 2026-05-07 14:04 | 37.07582 | 35.04113 | 6030 ft | 285 kts | 31° |
| 2026-05-07 14:05 | 37.09245 | 35.05375 | 5631 ft | 273 kts | 31° |
| 2026-05-07 14:05 | 37.10863 | 35.06600 | 5233 ft | 271 kts | 31° |
| 2026-05-07 14:05 | 37.12358 | 35.08019 | 4839 ft | 268 kts | 50° |
| 2026-05-07 14:05 | 37.13181 | 35.10087 | 4466 ft | 268 kts | 78° |
| 2026-05-07 14:06 | 37.13124 | 35.12375 | 4100 ft | 269 kts | 107° |
| 2026-05-07 14:06 | 37.12278 | 35.14459 | 3777 ft | 269 kts | 121° |
| 2026-05-07 14:06 | 37.11298 | 35.16450 | 3403 ft | 267 kts | 121° |
| 2026-05-07 14:06 | 37.10315 | 35.18441 | 3024 ft | 269 kts | 122° |
| 2026-05-07 14:07 | 37.09093 | 35.20193 | 2643 ft | 269 kts | 148° |
| 2026-05-07 14:07 | 37.07325 | 35.20800 | 2357 ft | 264 kts | 185° |
| 2026-05-07 14:07 | 37.05594 | 35.20134 | 2195 ft | 256 kts | 207° |
| 2026-05-07 14:07 | 37.04098 | 35.19047 | 2146 ft | 244 kts | 214° |
| 2026-05-07 14:08 | 37.02744 | 35.17900 | 2163 ft | 225 kts | 215° |
| 2026-05-07 14:08 | 37.01499 | 35.16831 | 2161 ft | 208 kts | 215° |
| 2026-05-07 14:08 | 37.00394 | 35.15901 | 2158 ft | 174 kts | 214° |
| 2026-05-07 14:08 | 36.99439 | 35.15111 | 2089 ft | 159 kts | 215° |
| 2026-05-07 14:09 | 36.98540 | 35.14365 | 1860 ft | 152 kts | 214° |
| 2026-05-07 14:09 | 36.97699 | 35.13677 | 1681 ft | 143 kts | 213° |
| 2026-05-07 14:09 | 36.96880 | 35.13013 | 1484 ft | 138 kts | 214° |
| 2026-05-07 14:09 | 36.96082 | 35.12362 | 1307 ft | 136 kts | 214° |
| 2026-05-07 14:10 | 36.95277 | 35.11745 | 1169 ft | 135 kts | 211° |
| 2026-05-07 14:10 | 36.94467 | 35.11144 | 1054 ft | 135 kts | 211° |
| 2026-05-07 14:10 | 36.93662 | 35.10542 | 874 ft | 135 kts | 212° |
| 2026-05-07 14:10 | 36.92865 | 35.09960 | 643 ft | 134 kts | 211° |
| 2026-05-07 14:11 | 36.92070 | 35.09358 | 480 ft | 134 kts | 213° |
| 2026-05-07 14:11 | 36.91272 | 35.08740 | 248 ft | 134 kts | 212° |
| 2026-05-07 14:11 | 36.90481 | 35.08138 | 101 ft | 134 kts | 211° |
| 2026-05-07 14:11 | 36.89713 | 35.07547 | 41 ft | 117 kts | 207° |
| 2026-05-07 14:12 | 36.89165 | 35.07128 | 40 ft | 68 kts | 211° |
| 2026-05-07 14:12 | 36.88933 | 35.06956 | 40 ft | 20 kts | 213° |
| 2026-05-07 14:12 | 36.88910 | 35.06937 | 40 ft | 5 kts | 213° |
| 2026-05-07 14:12 | 36.88845 | 35.06885 | 39 ft | 14 kts | 213° |
| 2026-05-07 14:13 | 36.88751 | 35.06815 | 37 ft | 17 kts | 211° |
| 2026-05-07 14:13 | 36.88648 | 35.06717 | 38 ft | 20 kts | 226° |
| 2026-05-07 14:13 | 36.88561 | 35.06577 | 38 ft | 17 kts | 238° |
| 2026-05-07 14:13 | 36.88537 | 35.06524 | 38 ft | 0 kts | 240° |
| 2026-05-07 14:15 | 36.88532 | 35.06513 | 38 ft | 4 kts | 240° |
| 2026-05-07 14:15 | 36.88515 | 35.06469 | 39 ft | 7 kts | 254° |
| 2026-05-07 14:15 | 36.88548 | 35.06407 | 39 ft | 12 kts | 347° |
| 2026-05-07 14:15 | 36.88629 | 35.06449 | 38 ft | 14 kts | 27° |
| 2026-05-07 14:16 | 36.88725 | 35.06518 | 39 ft | 20 kts | 30° |
| 2026-05-07 14:16 | 36.88877 | 35.06634 | 38 ft | 28 kts | 32° |
| 2026-05-07 14:16 | 36.89049 | 35.06764 | 41 ft | 30 kts | 32° |
| 2026-05-07 14:16 | 36.89232 | 35.06904 | 41 ft | 31 kts | 32° |
| 2026-05-07 14:17 | 36.89388 | 35.06975 | 42 ft | 18 kts | 330° |
| 2026-05-07 14:17 | 36.89411 | 35.06937 | 43 ft | 2 kts | 296° |
| 2026-05-07 14:17 | 36.89445 | 35.06866 | 43 ft | 15 kts | 301° |
| 2026-05-07 14:17 | 36.89505 | 35.06744 | 43 ft | 18 kts | 302° |
| 2026-05-07 14:18 | 36.89565 | 35.06647 | 43 ft | 6 kts | 356° |
| 2026-05-07 14:18 | 36.89612 | 35.06665 | 41 ft | 8 kts | 31° |
| 2026-05-07 14:18 | 36.89686 | 35.06723 | 42 ft | 18 kts | 30° |
| 2026-05-07 14:18 | 36.89805 | 35.06813 | 42 ft | 22 kts | 31° |
| 2026-05-07 14:19 | 36.89942 | 35.06918 | 40 ft | 25 kts | 31° |
| 2026-05-07 14:19 | 36.90043 | 35.06985 | 40 ft | 15 kts | 29° |
| 2026-05-07 14:19 | 36.90074 | 35.07017 | 43 ft | 3 kts | 36° |
| 2026-05-07 14:19 | 36.90101 | 35.07024 | 40 ft | 5 kts | 343° |
| 2026-05-07 14:20 | 36.90121 | 35.06996 | 43 ft | 1 kts | 303° |
| 2026-05-07 14:20 | 36.90122 | 35.06993 | 43 ft | 0 kts | 302° |
| 2026-05-07 14:20 | 36.90123 | 35.06992 | 43 ft | 0 kts | 302° |
| 2026-05-07 14:21 | 36.90125 | 35.06988 | 43 ft | 2 kts | 300° |
| 2026-05-07 14:21 | 36.90127 | 35.06982 | 40 ft | 1 kts | 301° |
| 2026-05-07 14:21 | 36.90128 | 35.06979 | 43 ft | 0 kts | 300° |